createdAt,value
2022-08-07T00:04:58.910Z,67.34
2022-08-07T00:07:27.292Z,67.22
2022-08-07T00:25:26.733Z,67.29
2022-08-07T00:27:56.682Z,67.48
2022-08-07T00:30:28.570Z,67.33
2022-08-07T00:33:01.254Z,67.11
2022-08-07T00:38:42.150Z,67.41
2022-08-07T00:41:15.104Z,67.51
2022-08-07T00:50:50.796Z,66.90
2022-08-07T00:56:56.834Z,66.87
2022-08-07T00:59:35.387Z,66.88
2022-08-07T01:02:29.686Z,66.88
2022-08-07T01:04:59.354Z,67.01
2022-08-07T01:07:29.639Z,67.02
2022-08-07T01:10:06.067Z,66.97
2022-08-07T01:12:53.087Z,67.16
2022-08-07T01:16:00.657Z,66.83
2022-08-07T01:18:16.880Z,67.17
2022-08-07T01:20:57.324Z,66.85
2022-08-07T01:23:36.739Z,66.49
2022-08-07T01:26:12.079Z,66.57
2022-08-07T01:28:52.009Z,66.38
2022-08-07T01:31:42.361Z,66.63
2022-08-07T01:34:14.481Z,66.61
2022-08-07T01:36:57.649Z,66.41
2022-08-07T01:39:40.482Z,66.54
2022-08-07T01:42:39.473Z,66.46
2022-08-07T01:45:09.966Z,66.70
2022-08-07T01:48:29.365Z,66.70
2022-08-07T01:50:40.282Z,66.60
2022-08-07T01:53:20.857Z,66.74
2022-08-07T01:56:03.288Z,66.83
2022-08-07T01:58:40.159Z,66.46
2022-08-07T02:02:02.432Z,66.70
2022-08-07T02:05:16.150Z,67.07
2022-08-07T02:08:10.464Z,66.67
2022-08-07T02:10:54.882Z,66.87
2022-08-07T02:13:58.068Z,66.59
2022-08-07T02:16:33.301Z,66.72
2022-08-07T02:20:04.903Z,67.00
2022-08-07T02:21:58.674Z,66.53
2022-08-07T02:24:29.312Z,66.77
2022-08-07T02:27:02.576Z,66.99
2022-08-07T02:29:43.545Z,66.96
2022-08-07T02:32:26.989Z,66.91
2022-08-07T02:35:00.977Z,66.86
2022-08-07T02:37:58.232Z,66.92
2022-08-07T02:40:34.992Z,67.05
2022-08-07T02:43:07.794Z,67.17
2022-08-07T02:46:03.741Z,67.31
2022-08-07T02:48:34.457Z,67.24
2022-08-07T02:51:28.876Z,67.35
2022-08-07T02:54:03.736Z,67.28
2022-08-07T02:56:33.689Z,67.25
2022-08-07T02:59:06.132Z,67.52
2022-08-07T03:01:39.966Z,67.61
2022-08-07T03:04:17.203Z,67.62
2022-08-07T03:06:48.370Z,67.43
2022-08-07T03:09:42.101Z,67.58
2022-08-07T03:12:16.175Z,67.66
2022-08-07T03:14:52.839Z,67.56
2022-08-07T03:17:23.191Z,67.47
2022-08-07T03:19:55.537Z,67.63
2022-08-07T03:22:29.562Z,67.57
2022-08-07T03:25:00.361Z,67.54
2022-08-07T03:27:59.400Z,67.92
2022-08-07T03:30:24.407Z,67.90
2022-08-07T03:32:58.643Z,67.72
2022-08-07T03:35:43.889Z,67.50
2022-08-07T03:38:45.968Z,67.49
2022-08-07T03:41:16.255Z,67.34
2022-08-07T03:43:56.891Z,66.89
2022-08-07T03:46:31.898Z,66.82
2022-08-07T03:49:05.324Z,66.77
2022-08-07T03:51:47.801Z,66.83
2022-08-07T03:54:35.726Z,66.68
2022-08-07T03:58:32.597Z,66.25
2022-08-07T04:00:36.772Z,66.48
2022-08-07T04:03:05.814Z,66.42
2022-08-07T04:05:42.448Z,66.25
2022-08-07T04:08:20.885Z,65.68
2022-08-07T04:10:54.617Z,65.70
2022-08-07T04:14:10.310Z,65.63
2022-08-07T04:16:35.349Z,65.22
2022-08-07T04:19:14.894Z,65.12
2022-08-07T04:22:19.585Z,64.75
2022-08-07T04:24:51.571Z,64.49
2022-08-07T04:28:00.301Z,64.34
2022-08-07T04:30:39.527Z,63.82
2022-08-07T04:33:28.944Z,63.77
2022-08-07T04:36:00.732Z,63.36
2022-08-07T04:38:36.420Z,63.24
2022-08-07T04:41:05.069Z,63.19
2022-08-07T04:44:12.928Z,62.76
2022-08-07T04:47:04.591Z,62.55
2022-08-07T04:49:57.444Z,62.45
2022-08-07T04:52:34.656Z,62.29
2022-08-07T04:58:16.215Z,61.95
2022-08-07T04:59:09.068Z,61.39
2022-08-07T05:01:36.021Z,61.73
2022-08-07T05:04:22.784Z,61.65
2022-08-07T05:07:20.488Z,61.79
2022-08-07T05:10:04.695Z,62.26
2022-08-07T05:12:58.506Z,61.84
2022-08-07T05:15:36.149Z,61.74
2022-08-07T05:18:25.426Z,61.11
2022-08-07T05:20:56.918Z,60.66
2022-08-07T05:23:52.789Z,60.70
2022-08-07T05:26:26.210Z,60.44
2022-08-07T05:29:10.401Z,59.72
2022-08-07T05:31:41.372Z,59.09
2022-08-07T05:34:26.362Z,59.14
2022-08-07T05:36:57.734Z,58.81
2022-08-07T05:40:13.423Z,59.01
2022-08-07T05:42:55.878Z,58.50
2022-08-07T05:46:12.204Z,58.05
2022-08-07T05:48:58.198Z,58.19
2022-08-07T05:54:55.824Z,58.07
2022-08-07T05:57:30.478Z,57.96
2022-08-07T06:00:05.068Z,56.81
2022-08-07T06:02:50.659Z,55.96
2022-08-07T06:05:23.177Z,55.99
2022-08-07T06:08:14.392Z,55.28
2022-08-07T06:10:51.329Z,54.64
2022-08-07T06:14:11.595Z,53.79
2022-08-07T06:16:13.270Z,52.63
2022-08-07T06:18:51.708Z,52.31
2022-08-07T06:22:15.814Z,52.28
2022-08-07T06:24:45.814Z,52.21
2022-08-07T06:27:04.110Z,51.57
2022-08-07T06:29:35.133Z,51.60
2022-08-07T06:32:08.453Z,50.99
2022-08-07T06:34:36.253Z,51.57
2022-08-07T06:37:17.204Z,51.26
2022-08-07T06:40:16.668Z,50.76
2022-08-07T06:42:37.700Z,51.03
2022-08-07T06:45:30.258Z,50.27
2022-08-07T06:48:02.377Z,50.41
2022-08-07T06:50:43.251Z,50.36
2022-08-07T06:54:12.179Z,50.70
2022-08-07T06:56:15.418Z,50.67
2022-08-07T07:00:14.211Z,50.47
2022-08-07T07:01:44.099Z,50.50
2022-08-07T07:04:32.220Z,49.71
2022-08-07T07:07:10.641Z,48.63
2022-08-07T07:09:49.161Z,47.53
2022-08-07T07:12:37.583Z,47.61
2022-08-07T07:15:26.499Z,47.21
2022-08-07T07:18:47.499Z,47.36
2022-08-07T07:21:22.189Z,46.58
2022-08-07T07:24:08.775Z,46.04
2022-08-07T07:26:49.689Z,45.01
2022-08-07T07:29:39.520Z,44.95
2022-08-07T07:32:14.568Z,45.12
2022-08-07T07:34:55.982Z,45.04
2022-08-07T07:37:47.256Z,44.97
2022-08-07T07:40:19.738Z,44.16
2022-08-07T07:42:54.066Z,44.04
2022-08-07T07:46:37.414Z,43.96
2022-08-07T07:48:35.258Z,44.39
2022-08-07T07:51:07.918Z,44.56
2022-08-07T07:53:52.184Z,44.42
2022-08-07T07:56:29.697Z,43.82
2022-08-07T07:59:01.705Z,43.52
2022-08-07T08:02:01.888Z,42.78
2022-08-07T08:04:25.851Z,42.19
2022-08-07T08:06:56.257Z,42.38
2022-08-07T08:09:29.486Z,42.70
2022-08-07T08:12:02.316Z,41.77
2022-08-07T08:14:37.050Z,40.80
2022-08-07T08:17:55.576Z,41.34
2022-08-07T08:20:17.329Z,41.46
2022-08-07T08:23:14.261Z,41.88
2022-08-07T08:26:06.984Z,42.05
2022-08-07T08:28:44.724Z,41.70
2022-08-07T08:31:30.189Z,41.10
2022-08-07T08:34:12.481Z,40.58
2022-08-07T08:36:59.398Z,40.57
2022-08-07T08:39:39.003Z,39.73
2022-08-07T08:42:16.148Z,39.18
2022-08-07T08:45:18.661Z,38.92
2022-08-07T08:48:15.482Z,39.12
2022-08-07T08:50:52.538Z,38.89
2022-08-07T08:53:43.182Z,38.75
2022-08-07T08:56:26.280Z,39.07
2022-08-07T08:59:25.082Z,39.20
2022-08-07T09:01:59.538Z,40.03
2022-08-07T09:04:59.904Z,39.54
2022-08-07T09:08:08.879Z,39.83
2022-08-07T09:10:52.999Z,39.67
2022-08-07T09:13:37.120Z,40.11
2022-08-07T09:16:29.876Z,38.82
2022-08-07T09:19:44.805Z,38.02
2022-08-07T09:24:27.167Z,38.07
2022-08-07T09:25:17.284Z,38.39
2022-08-07T09:28:03.007Z,38.31
2022-08-07T09:30:59.282Z,38.05
2022-08-07T09:33:58.289Z,38.34
2022-08-07T09:36:27.136Z,38.26
2022-08-07T09:39:52.999Z,37.96
2022-08-07T09:42:33.674Z,37.92
2022-08-07T09:47:25.693Z,37.48
2022-08-07T09:48:29.826Z,37.83
2022-08-07T09:52:15.631Z,38.09
2022-08-07T09:54:47.123Z,37.57
2022-08-07T09:57:46.504Z,37.13
2022-08-07T10:00:20.370Z,36.90
2022-08-07T10:04:05.879Z,36.36
2022-08-07T10:06:55.536Z,36.03
2022-08-07T10:10:00.137Z,35.56
2022-08-07T10:12:53.040Z,35.15
2022-08-07T10:15:50.014Z,34.55
2022-08-07T10:18:53.111Z,34.66
2022-08-07T10:22:12.474Z,34.71
2022-08-07T10:24:39.992Z,34.21
2022-08-07T10:27:17.830Z,33.98
2022-08-07T10:30:07.160Z,33.07
2022-08-07T10:33:15.084Z,33.38
2022-08-07T10:36:14.328Z,32.87
2022-08-07T10:39:02.141Z,33.14
2022-08-07T10:42:00.382Z,32.72
2022-08-07T10:44:50.194Z,32.58
2022-08-07T10:47:26.994Z,33.25
2022-08-07T10:50:25.934Z,33.79
2022-08-07T10:53:08.854Z,33.06
2022-08-07T10:55:43.190Z,33.40
2022-08-07T10:58:32.103Z,32.77
2022-08-07T11:01:23.678Z,33.10
2022-08-07T11:04:23.372Z,32.85
2022-08-07T11:07:56.261Z,32.36
2022-08-07T11:10:20.294Z,32.57
2022-08-07T11:13:04.022Z,31.90
2022-08-07T11:15:38.742Z,32.05
2022-08-07T11:18:31.659Z,32.49
2022-08-07T11:21:11.447Z,32.59
2022-08-07T11:24:11.773Z,32.56
2022-08-07T11:26:51.490Z,32.17
2022-08-07T11:29:42.193Z,32.28
2022-08-07T11:32:33.370Z,32.78
2022-08-07T11:35:10.094Z,32.69
2022-08-07T11:38:10.173Z,32.75
2022-08-07T11:41:04.144Z,31.95
2022-08-07T11:44:11.146Z,31.49
2022-08-07T11:46:48.617Z,31.55
2022-08-07T11:50:30.073Z,30.84
2022-08-07T11:52:35.686Z,31.08
2022-08-07T11:56:14.045Z,31.75
2022-08-07T11:58:55.251Z,31.73
2022-08-07T12:02:02.513Z,32.35
2022-08-07T12:05:04.530Z,31.73
2022-08-07T12:08:04.036Z,32.26
2022-08-07T12:10:42.538Z,32.35
2022-08-07T12:13:36.731Z,32.38
2022-08-07T12:16:35.507Z,32.72
2022-08-07T12:20:02.741Z,32.57
2022-08-07T12:22:58.315Z,33.30
2022-08-07T12:26:05.391Z,33.12
2022-08-07T12:29:09.913Z,32.69
2022-08-07T12:32:02.266Z,32.66
2022-08-07T12:34:34.744Z,32.70
2022-08-07T12:37:16.244Z,32.44
2022-08-07T12:39:57.843Z,32.44
2022-08-07T12:42:28.555Z,32.19
2022-08-07T12:45:06.659Z,31.88
2022-08-07T12:47:46.336Z,31.98
2022-08-07T12:50:40.351Z,32.30
2022-08-07T12:54:36.419Z,32.05
2022-08-07T12:56:32.028Z,32.58
2022-08-07T12:59:02.877Z,32.78
2022-08-07T13:02:22.277Z,33.36
2022-08-07T13:06:02.848Z,34.10
2022-08-07T13:08:31.952Z,34.49
2022-08-07T13:11:09.112Z,34.52
2022-08-07T13:14:09.081Z,33.78
2022-08-07T13:17:01.276Z,34.37
2022-08-07T13:19:51.624Z,33.67
2022-08-07T13:22:37.877Z,33.33
2022-08-07T13:25:15.270Z,33.65
2022-08-07T13:28:11.458Z,32.86
2022-08-07T13:31:01.408Z,32.57
2022-08-07T13:34:32.757Z,32.49
2022-08-07T13:37:00.039Z,32.81
2022-08-07T13:40:33.469Z,33.33
2022-08-07T13:42:39.750Z,33.41
2022-08-07T13:45:20.910Z,33.88
2022-08-07T13:48:07.654Z,33.87
2022-08-07T13:51:27.235Z,34.36
2022-08-07T13:54:00.625Z,34.21
2022-08-07T13:56:36.342Z,34.56
2022-08-07T13:59:15.964Z,34.84
2022-08-07T14:02:03.885Z,34.27
2022-08-07T14:04:36.075Z,33.81
2022-08-07T14:07:10.133Z,33.50
2022-08-07T14:10:12.340Z,33.41
2022-08-07T14:12:54.152Z,33.07
2022-08-07T14:15:42.148Z,32.02
2022-08-07T14:18:28.314Z,31.80
2022-08-07T14:22:02.487Z,30.84
2022-08-07T14:24:33.459Z,30.75
2022-08-07T14:28:09.908Z,31.06
2022-08-07T14:30:04.933Z,30.81
2022-08-07T14:32:48.368Z,30.32
2022-08-07T14:35:44.996Z,31.42
2022-08-07T14:38:26.626Z,32.14
2022-08-07T14:41:04.136Z,32.17
2022-08-07T14:43:58.582Z,32.21
2022-08-07T14:49:16.118Z,32.29
2022-08-07T14:52:29.197Z,32.87
2022-08-07T14:54:59.568Z,32.74
2022-08-07T14:57:58.126Z,32.81
2022-08-07T15:00:20.692Z,32.96
2022-08-07T15:03:00.316Z,32.96
2022-08-07T15:05:55.072Z,33.44
2022-08-07T15:08:54.514Z,33.34
2022-08-07T15:11:50.753Z,33.45
2022-08-07T15:14:21.596Z,33.40
2022-08-07T15:17:00.539Z,33.43
2022-08-07T15:20:33.185Z,33.83
2022-08-07T15:22:33.436Z,33.99
2022-08-07T15:25:17.124Z,34.26
2022-08-07T15:28:30.847Z,34.45
2022-08-07T15:34:01.113Z,35.52
2022-08-07T15:37:03.786Z,35.63
2022-08-07T15:39:17.815Z,35.91
2022-08-07T15:42:44.621Z,35.96
2022-08-07T15:44:53.015Z,36.06
2022-08-07T15:50:37.986Z,35.98
2022-08-07T15:53:17.257Z,35.99
2022-08-07T15:56:02.540Z,36.09
2022-08-07T15:59:00.481Z,36.14
2022-08-07T16:01:45.039Z,36.18
2022-08-07T16:04:33.641Z,36.18
2022-08-07T16:08:31.347Z,36.32
2022-08-07T16:10:14.635Z,36.59
2022-08-07T16:13:58.962Z,36.70
2022-08-07T16:17:03.245Z,37.18
2022-08-07T16:20:33.965Z,36.91
2022-08-07T16:23:54.331Z,36.96
2022-08-07T16:26:59.395Z,37.18
2022-08-07T16:30:30.534Z,37.34
2022-08-07T16:34:02.678Z,37.57
2022-08-07T16:36:07.531Z,37.38
2022-08-07T16:39:48.706Z,37.33
2022-08-07T16:42:34.250Z,37.54
2022-08-07T16:45:07.909Z,37.48
2022-08-07T16:50:13.775Z,37.54
2022-08-07T16:52:35.308Z,37.34
2022-08-07T16:55:08.442Z,37.39
2022-08-07T16:58:04.253Z,37.48
2022-08-07T17:00:44.792Z,37.74
2022-08-07T17:03:58.551Z,37.58
2022-08-07T17:06:57.918Z,37.54
2022-08-07T17:10:06.346Z,37.75
2022-08-07T17:13:14.312Z,37.70
2022-08-07T17:15:51.842Z,37.75
2022-08-07T17:18:30.336Z,37.70
2022-08-07T17:20:58.860Z,37.82
2022-08-07T17:23:41.659Z,37.98
2022-08-07T17:26:23.430Z,38.26
2022-08-07T17:29:08.621Z,38.17
2022-08-07T17:32:03.206Z,38.25
2022-08-07T17:35:33.023Z,38.18
2022-08-07T17:38:05.568Z,38.26
2022-08-07T17:42:02.295Z,38.47
2022-08-07T17:44:33.782Z,38.69
2022-08-07T17:47:44.438Z,38.91
2022-08-07T17:51:01.690Z,39.06
2022-08-07T17:54:00.983Z,39.38
2022-08-07T17:56:35.048Z,39.49
2022-08-07T17:59:35.599Z,39.92
2022-08-07T18:02:39.530Z,39.90
2022-08-07T18:06:03.208Z,40.20
2022-08-07T18:09:01.038Z,40.21
2022-08-07T18:12:18.117Z,40.03
2022-08-07T18:15:32.933Z,40.56
2022-08-07T18:18:47.013Z,40.87
2022-08-07T18:21:38.365Z,40.91
2022-08-07T18:24:09.257Z,41.13
2022-08-07T18:26:40.470Z,41.33
2022-08-07T18:30:06.081Z,41.26
2022-08-07T18:32:41.688Z,41.28
2022-08-07T18:35:50.320Z,41.74
2022-08-07T18:40:06.667Z,41.74
2022-08-07T18:42:21.766Z,42.04
2022-08-07T18:45:44.771Z,41.96
2022-08-07T18:50:05.574Z,42.13
2022-08-07T18:52:33.515Z,42.01
2022-08-07T18:54:53.606Z,42.34
2022-08-07T18:57:58.585Z,42.95
2022-08-07T19:00:55.187Z,43.05
2022-08-07T19:03:49.726Z,43.17
2022-08-07T19:06:48.295Z,43.64
2022-08-07T19:09:56.886Z,44.19
2022-08-07T19:12:59.539Z,43.95
2022-08-07T19:16:05.586Z,44.08
2022-08-07T19:18:58.651Z,44.62
2022-08-07T19:25:06.905Z,45.09
2022-08-07T19:30:54.166Z,45.42
2022-08-07T19:31:41.708Z,46.10
2022-08-07T19:33:56.445Z,46.82
2022-08-07T19:36:30.660Z,46.44
2022-08-07T19:39:09.098Z,46.45
2022-08-07T19:42:05.885Z,46.34
2022-08-07T19:45:13.137Z,46.71
2022-08-07T19:48:02.588Z,46.95
2022-08-07T19:50:43.802Z,47.29
2022-08-07T19:54:31.588Z,47.28
2022-08-07T19:58:00.427Z,47.50
2022-08-07T20:00:39.349Z,47.92
2022-08-07T20:03:35.646Z,48.43
2022-08-07T20:06:15.248Z,48.31
2022-08-07T20:09:03.074Z,48.63
2022-08-07T20:12:22.090Z,49.43
2022-08-07T20:14:32.986Z,49.87
2022-08-07T20:17:07.260Z,50.17
2022-08-07T20:19:49.402Z,50.64
2022-08-07T20:22:34.546Z,50.70
2022-08-07T20:25:12.961Z,50.87
2022-08-07T20:27:54.111Z,50.67
2022-08-07T20:30:33.483Z,50.17
2022-08-07T20:33:08.915Z,49.83
2022-08-07T20:35:51.835Z,49.63
2022-08-07T20:38:24.839Z,49.93
2022-08-07T20:41:02.036Z,49.97
2022-08-07T20:43:34.218Z,49.63
2022-08-07T20:46:29.182Z,49.88
2022-08-07T20:49:58.948Z,49.94
2022-08-07T20:51:52.280Z,50.19
2022-08-07T20:54:29.897Z,50.53
2022-08-07T20:57:05.298Z,50.90
2022-08-07T21:00:06.501Z,51.26
2022-08-07T21:02:53.846Z,51.77
2022-08-07T21:05:51.298Z,52.09
2022-08-07T21:08:42.375Z,52.59
2022-08-07T21:11:17.636Z,52.99
2022-08-07T21:14:16.394Z,53.21
2022-08-07T21:16:57.057Z,53.85
2022-08-07T21:19:51.175Z,54.26
2022-08-07T21:22:28.497Z,54.49
2022-08-07T21:25:20.688Z,54.75
2022-08-07T21:28:05.968Z,55.54
2022-08-07T21:34:34.119Z,56.66
2022-08-07T21:37:22.665Z,56.57
2022-08-07T21:40:27.644Z,56.82
2022-08-07T21:43:22.896Z,57.10
2022-08-07T21:46:24.324Z,57.18
2022-08-07T21:49:25.625Z,57.66
2022-08-07T21:52:04.257Z,57.60
2022-08-07T21:54:46.018Z,58.18
2022-08-07T21:57:53.849Z,59.02
2022-08-07T22:00:50.019Z,58.92
2022-08-07T22:04:00.662Z,59.26
2022-08-07T22:07:09.853Z,59.59
2022-08-07T22:09:54.329Z,59.50
2022-08-07T22:12:44.265Z,59.90
2022-08-07T22:16:38.694Z,60.27
2022-08-07T22:18:56.066Z,60.48
2022-08-07T22:22:04.834Z,60.26
2022-08-07T22:24:32.846Z,60.46
2022-08-07T22:27:16.029Z,60.34
2022-08-07T22:29:52.571Z,60.70
2022-08-07T22:32:33.504Z,60.59
2022-08-07T22:35:03.296Z,60.79
2022-08-07T22:38:03.176Z,61.29
2022-08-07T22:41:10.131Z,61.50
2022-08-07T22:44:08.396Z,62.40
2022-08-07T22:47:04.458Z,61.87
2022-08-07T22:49:54.389Z,62.07
2022-08-07T22:52:51.086Z,61.83
2022-08-07T22:55:52.456Z,61.49
2022-08-07T22:58:28.452Z,61.49
2022-08-07T23:01:15.835Z,62.17
2022-08-07T23:03:58.548Z,62.70
2022-08-07T23:06:33.838Z,63.02
2022-08-07T23:10:03.697Z,63.35
2022-08-07T23:13:15.512Z,63.61
2022-08-07T23:16:06.647Z,63.66
2022-08-07T23:19:38.796Z,63.97
2022-08-07T23:23:05.020Z,63.77
2022-08-07T23:25:56.744Z,63.32
2022-08-07T23:28:54.638Z,63.36
2022-08-07T23:32:49.545Z,63.25
2022-08-07T23:34:54.393Z,63.31
2022-08-07T23:38:01.532Z,62.44
2022-08-07T23:40:36.584Z,62.28
2022-08-07T23:43:39.114Z,62.39
2022-08-07T23:46:54.859Z,62.23
2022-08-07T23:49:50.117Z,62.23
2022-08-07T23:53:05.193Z,62.36
2022-08-07T23:55:51.908Z,61.93
2022-08-07T23:59:10.444Z,61.92
